Huvudsida
METAR-TAF:

METAR-TAF

Flygplatser :

Beirut Air Base

Beirut, Libanon

latitud: 33-49N, longitud: 035-29E, höjd: 29 m

Aktuellt väderrapport

Denna rapport gjordes för 12 minuter sedan, klockan 21:00 UTC
Vind 3 kt från ost
Temperatur 23°C
Fuktighet 65%
Tryck 1017 hPa
Sikt 10 km eller mer
Inga moln under 1 500 m eller inga cumulonimbus

METAR: OLBA 212100Z 10003KT CAVOK 23/16 Q1017 NOSIG

Tid: 00:12 (21:12 UTC)

Väderprognos

Denna rapport gjordes för 5 timmar och 12 minuter sedan, klockan 16:00 UTC
Prognos gäller från 21 kl. 18 UTC till 22 kl. 24 UTC
Vind 8 kt från nord/nordväst
Sikt 10 km eller mer
Inga moln under 1 500 m eller inga cumulonimbus
Blir
från 22 kl. 06 UTC till 22 kl. 09 UTC
Vind 8 kt från nord
Blir
från 22 kl. 15 UTC till 22 kl. 18 UTC
Vind 8 kt från nord/nordost
Blir
från 22 kl. 18 UTC till 22 kl. 21 UTC
Vind 8 kt från ost

TAF: OLBA 211600Z 2118/2224 34008KT CAVOK BECMG 2206/2209 36008KT BECMG 2215/2218 02008KT BECMG 2218/2221 09008KT

Aktuella väderrapporter och prognoser från 4000 flygplatser (METAR- och TAF-rapporter).

De tillgängliga stationerna syns som gula och röda prickar på kartan.

För musen över prickarna för att se namnen på stationerna.

Klicka sedan för att få väderrapporter och prognoser.

För att ändra kartan: Klicka på de gröna knapparna med ett svart kors på för att zooma in; den gröna knappen med ett streck på för att zooma ut; eller på de gröna pilarna för angränsande kartor.


METAR-TAF: